Time;durP1;ratioP1;P1;durP2;ratioP2;P2;SDS_P1;SDS_P2;PMS_P1;PMS_P2;Temp;Humidity;BMP_temperature;BMP_pressure;BME280_temperature;BME280_humidity;BME280_pressure;Samples;Min_cycle;Max_cycle;Signal;HPM_P1;HPM_P2
2024/03/12 00:01:36;;;;;;;74.15;34.67;;;8.30;99.90;;;;;;6239515;28;20061;-83
2024/03/12 00:04:40;;;;;;;74.40;33.67;;;8.30;99.90;;;;;;6250522;28;20203;-84
2024/03/12 00:07:42;;;;;;;68.95;32.42;;;8.40;99.90;;;;;;6225745;28;20490;-83
2024/03/12 00:10:44;;;;;;;68.45;32.03;;;8.30;99.90;;;;;;6226692;28;20050;-84
2024/03/12 00:13:46;;;;;;;73.30;34.53;;;8.30;99.90;;;;;;6237786;28;20052;-84
2024/03/12 00:16:48;;;;;;;74.10;34.17;;;8.30;99.90;;;;;;6245032;28;20060;-83
2024/03/12 00:19:52;;;;;;;74.22;33.75;;;8.30;99.90;;;;;;6226246;28;20058;-83
2024/03/12 00:22:53;;;;;;;73.80;33.85;;;8.20;99.90;;;;;;6249531;28;20049;-83
2024/03/12 00:25:56;;;;;;;73.15;33.70;;;8.20;99.90;;;;;;6249780;28;20046;-82
2024/03/12 00:28:58;;;;;;;73.70;33.25;;;8.10;99.90;;;;;;6212608;28;20425;-83
2024/03/12 00:32:00;;;;;;;70.30;33.42;;;8.10;99.90;;;;;;6229668;28;20099;-83
2024/03/12 00:35:03;;;;;;;69.85;32.67;;;8.10;99.90;;;;;;6246587;28;20419;-83
2024/03/12 00:38:04;;;;;;;70.68;31.40;;;7.90;99.90;;;;;;6228048;28;20056;-83
2024/03/12 00:41:06;;;;;;;70.10;31.88;;;8.00;99.90;;;;;;6227205;28;20054;-83
2024/03/12 00:44:08;;;;;;;70.25;32.85;;;7.90;99.90;;;;;;6244966;28;20053;-83
2024/03/12 00:47:10;;;;;;;70.00;32.10;;;7.90;99.90;;;;;;6211116;28;20512;-83
2024/03/12 00:50:13;;;;;;;66.65;30.80;;;7.80;99.90;;;;;;6227200;28;20053;-84
2024/03/12 00:53:15;;;;;;;66.05;30.45;;;7.80;99.90;;;;;;6245059;28;20053;-83
2024/03/12 00:56:17;;;;;;;65.35;29.88;;;7.80;99.90;;;;;;6244756;28;20049;-84
2024/03/12 00:59:18;;;;;;;66.53;31.17;;;7.80;99.90;;;;;;6217398;28;20790;-83
2024/03/12 01:02:20;;;;;;;68.47;30.25;;;7.80;99.90;;;;;;6244943;28;20072;-83
2024/03/12 01:05:24;;;;;;;62.13;29.40;;;7.80;99.90;;;;;;6245496;28;20160;-83
2024/03/12 01:08:26;;;;;;;56.55;28.20;;;7.90;99.90;;;;;;6242991;28;20045;-84
2024/03/12 01:11:28;;;;;;;62.92;29.17;;;7.90;99.90;;;;;;6226825;28;20489;-84
2024/03/12 01:14:30;;;;;;;61.40;29.17;;;7.90;99.90;;;;;;6232724;28;20176;-84
2024/03/12 01:17:32;;;;;;;60.47;29.35;;;8.00;99.90;;;;;;6247543;28;20049;-83
2024/03/12 01:20:34;;;;;;;63.55;29.52;;;7.90;99.90;;;;;;6245420;28;20091;-83
2024/03/12 01:23:36;;;;;;;56.65;26.65;;;8.00;99.90;;;;;;6244215;28;20118;-84
2024/03/12 01:26:38;;;;;;;58.15;28.02;;;8.00;99.90;;;;;;6244277;28;20053;-84
2024/03/12 01:29:41;;;;;;;60.30;28.42;;;8.00;99.90;;;;;;6229399;28;20436;-84
2024/03/12 01:32:44;;;;;;;55.78;27.95;;;8.00;99.90;;;;;;6226210;28;20428;-84
2024/03/12 01:35:46;;;;;;;54.83;26.95;;;8.00;99.90;;;;;;6226900;28;20079;-84
2024/03/12 01:38:48;;;;;;;59.15;28.52;;;8.00;99.90;;;;;;6243882;28;20071;-83
2024/03/12 01:41:51;;;;;;;57.00;27.08;;;8.00;99.90;;;;;;6226281;28;20139;-83
2024/03/12 01:44:55;;;;;;;54.80;27.70;;;8.00;99.90;;;;;;6207398;28;20057;-83
2024/03/12 01:47:56;;;;;;;57.08;27.13;;;8.10;99.90;;;;;;6243989;28;20049;-84
2024/03/12 01:50:58;;;;;;;53.90;26.10;;;8.10;99.90;;;;;;6243842;28;20056;-84
2024/03/12 01:54:03;;;;;;;53.63;26.15;;;8.10;99.90;;;;;;6242411;28;20060;-82
2024/03/12 01:57:06;;;;;;;50.33;25.23;;;8.10;99.90;;;;;;6243902;28;20053;-84
2024/03/12 02:00:10;;;;;;;50.42;24.77;;;8.10;99.90;;;;;;6206947;28;21119;-84
2024/03/12 02:03:12;;;;;;;51.45;25.25;;;8.10;99.90;;;;;;6243622;28;20686;-83
2024/03/12 02:06:14;;;;;;;50.05;23.95;;;8.10;99.90;;;;;;6225592;28;20045;-83
2024/03/12 02:09:15;;;;;;;52.70;23.92;;;8.10;99.90;;;;;;6243666;28;20084;-82
2024/03/12 02:12:18;;;;;;;49.70;24.50;;;8.10;99.90;;;;;;6243555;28;20057;-82
2024/03/12 02:15:23;;;;;;;54.30;25.95;;;8.10;99.90;;;;;;6211784;28;20500;-82
2024/03/12 02:18:25;;;;;;;48.75;23.95;;;8.10;99.90;;;;;;6225775;28;20131;-82
2024/03/12 02:21:27;;;;;;;48.03;23.88;;;8.10;99.90;;;;;;6224954;28;20576;-83
2024/03/12 02:24:29;;;;;;;53.13;24.95;;;8.10;99.90;;;;;;6225590;28;20140;-83
2024/03/12 02:27:30;;;;;;;52.95;24.55;;;8.10;99.90;;;;;;6243391;28;20053;-83
2024/03/12 02:30:32;;;;;;;45.35;22.00;;;8.10;99.90;;;;;;6224639;28;20045;-83
2024/03/12 02:33:34;;;;;;;49.15;23.55;;;8.10;99.90;;;;;;6225586;28;20565;-83
2024/03/12 02:36:36;;;;;;;46.90;22.95;;;8.10;99.90;;;;;;6242835;28;20191;-83
2024/03/12 02:39:39;;;;;;;48.03;23.38;;;8.00;99.90;;;;;;6223210;28;20060;-83
2024/03/12 02:42:41;;;;;;;47.15;21.95;;;8.00;99.90;;;;;;6243269;28;20064;-84
2024/03/12 02:45:44;;;;;;;48.25;23.33;;;7.90;99.90;;;;;;6210144;28;20132;-82
2024/03/12 02:48:46;;;;;;;47.45;21.95;;;7.90;99.90;;;;;;6230043;28;20130;-83
2024/03/12 02:51:48;;;;;;;48.42;22.67;;;7.80;99.90;;;;;;6229687;28;20119;-82
2024/03/12 02:54:50;;;;;;;44.90;21.48;;;7.70;99.90;;;;;;6230501;28;20061;-83
2024/03/12 02:57:52;;;;;;;45.20;21.00;;;7.70;99.90;;;;;;6229650;28;20049;-82
2024/03/12 03:00:53;;;;;;;42.45;20.23;;;7.70;99.90;;;;;;6210859;28;20049;-82
2024/03/12 03:03:57;;;;;;;41.35;19.92;;;7.70;99.90;;;;;;6221661;28;20057;-82
2024/03/12 03:07:00;;;;;;;42.22;19.48;;;7.70;99.90;;;;;;6229773;28;20057;-82
2024/03/12 03:10:01;;;;;;;39.03;18.70;;;7.70;99.90;;;;;;6245057;28;20053;-83
2024/03/12 03:13:03;;;;;;;42.35;19.98;;;7.70;99.90;;;;;;6229419;28;20414;-82
2024/03/12 03:16:06;;;;;;;41.22;18.98;;;7.70;99.90;;;;;;6228912;28;20404;-83
2024/03/12 03:19:08;;;;;;;34.60;17.88;;;7.70;99.90;;;;;;6222687;28;20057;-83
2024/03/12 03:22:10;;;;;;;38.70;18.60;;;7.60;99.90;;;;;;6228098;28;20501;-83
2024/03/12 03:25:12;;;;;;;36.03;17.95;;;7.70;99.90;;;;;;6247367;28;20190;-83
2024/03/12 03:28:14;;;;;;;36.70;17.63;;;7.60;99.90;;;;;;6246712;28;20056;-84
2024/03/12 03:31:16;;;;;;;34.85;17.80;;;7.60;99.90;;;;;;6210884;28;20057;-83
2024/03/12 03:34:17;;;;;;;35.03;16.98;;;7.50;99.90;;;;;;6222531;28;20425;-82
2024/03/12 03:37:22;;;;;;;34.10;17.02;;;7.50;99.90;;;;;;6246304;28;20064;-82
2024/03/12 03:40:25;;;;;;;37.28;16.88;;;7.50;99.90;;;;;;6246603;28;20053;-82
2024/03/12 03:43:30;;;;;;;34.35;17.00;;;7.50;99.90;;;;;;6223420;28;20132;-83
2024/03/12 03:46:34;;;;;;;36.50;16.92;;;7.50;99.90;;;;;;6246720;28;20175;-83
2024/03/12 03:49:36;;;;;;;35.00;16.98;;;7.60;99.90;;;;;;6246423;28;20053;-83
2024/03/12 03:52:38;;;;;;;34.08;16.42;;;7.60;99.90;;;;;;6246937;28;20057;-83
2024/03/12 03:55:40;;;;;;;34.00;16.10;;;7.60;99.90;;;;;;6245778;28;20057;-83
2024/03/12 03:58:43;;;;;;;34.50;16.65;;;7.60;99.90;;;;;;6214154;28;20056;-83
2024/03/12 04:01:49;;;;;;;35.15;16.85;;;7.70;99.90;;;;;;6246086;28;20076;-83
2024/03/12 04:04:50;;;;;;;33.70;16.25;;;7.70;99.90;;;;;;6222161;28;20144;-83
2024/03/12 04:07:54;;;;;;;34.85;16.30;;;7.70;99.90;;;;;;6226172;28;20064;-84
2024/03/12 04:10:55;;;;;;;34.58;16.48;;;7.70;99.90;;;;;;6228491;28;20049;-84
2024/03/12 04:13:58;;;;;;;34.28;16.90;;;7.70;99.90;;;;;;6213841;28;20053;-83
2024/03/12 04:17:04;;;;;;;31.02;16.73;;;7.80;99.90;;;;;;6247200;28;20061;-83
2024/03/12 04:20:09;;;;;;;33.40;16.23;;;7.70;99.90;;;;;;6230321;28;20061;-82
2024/03/12 04:23:10;;;;;;;31.75;15.95;;;7.80;99.90;;;;;;6231255;28;20057;-82
2024/03/12 04:26:12;;;;;;;33.83;16.23;;;7.80;99.90;;;;;;6230075;28;20439;-83
2024/03/12 04:29:14;;;;;;;32.20;15.68;;;7.80;99.90;;;;;;6226392;28;20053;-83
2024/03/12 04:32:15;;;;;;;32.50;16.05;;;7.90;99.90;;;;;;6221582;28;20521;-83
2024/03/12 04:35:17;;;;;;;35.15;16.58;;;7.90;99.90;;;;;;6227225;28;20508;-84
2024/03/12 04:38:19;;;;;;;34.83;16.60;;;7.90;99.90;;;;;;6243675;28;20045;-84
2024/03/12 04:41:20;;;;;;;32.22;16.60;;;7.90;99.90;;;;;;6227855;28;20053;-83
2024/03/12 04:44:22;;;;;;;34.30;16.92;;;7.90;99.90;;;;;;6243394;23;20056;-84
2024/03/12 04:47:24;;;;;;;33.03;16.85;;;7.90;99.90;;;;;;6248277;28;20060;-84
2024/03/12 04:50:26;;;;;;;32.88;16.30;;;8.00;99.90;;;;;;6248999;28;20359;-85
2024/03/12 04:53:27;;;;;;;33.13;17.05;;;8.00;99.90;;;;;;6229435;28;20053;-84
2024/03/12 04:56:29;;;;;;;34.50;16.48;;;8.00;99.90;;;;;;6221825;28;20061;-85
2024/03/12 04:59:31;;;;;;;35.13;17.02;;;8.00;99.90;;;;;;6236220;28;20053;-84
2024/03/12 05:02:33;;;;;;;35.17;16.92;;;8.00;99.90;;;;;;6266364;28;20079;-84
2024/03/12 05:05:35;;;;;;;31.95;16.33;;;8.00;99.90;;;;;;6246914;28;20060;-84
2024/03/12 05:08:37;;;;;;;34.80;16.38;;;7.90;99.90;;;;;;6204149;28;20516;-85
2024/03/12 05:11:38;;;;;;;31.15;15.90;;;8.00;99.90;;;;;;6247291;28;20045;-84
2024/03/12 05:14:40;;;;;;;36.92;17.70;;;7.90;99.90;;;;;;6216900;28;20483;-84
2024/03/12 05:17:42;;;;;;;36.45;17.45;;;7.90;99.90;;;;;;6205414;28;20077;-83
2024/03/12 05:20:44;;;;;;;34.70;17.35;;;7.90;99.90;;;;;;6228936;28;20049;-83
2024/03/12 05:23:46;;;;;;;37.70;18.27;;;7.90;99.90;;;;;;6221410;28;20050;-83
2024/03/12 05:26:49;;;;;;;37.15;17.63;;;7.90;99.90;;;;;;6245108;28;20053;-83
2024/03/12 05:29:54;;;;;;;37.70;17.48;;;7.90;99.90;;;;;;6248109;28;20179;-83
2024/03/12 05:32:56;;;;;;;35.85;17.13;;;7.80;99.90;;;;;;6230625;28;20046;-83
2024/03/12 05:36:02;;;;;;;37.97;17.45;;;7.80;99.90;;;;;;6217438;28;20087;-83
2024/03/12 05:39:04;;;;;;;39.42;17.88;;;7.80;99.90;;;;;;6255176;28;20068;-83
2024/03/12 05:48:50;;;;;;;38.40;18.13;;;7.70;99.90;;;;;;6245933;28;20053;-85
2024/03/12 05:51:53;;;;;;;41.17;19.58;;;7.70;99.90;;;;;;6267855;28;20048;-83
2024/03/12 05:54:54;;;;;;;40.75;19.23;;;7.60;99.90;;;;;;6245824;28;20049;-86
2024/03/12 05:57:56;;;;;;;37.55;18.70;;;7.60;99.90;;;;;;6205586;28;20065;-85
2024/03/12 06:00:58;;;;;;;38.90;18.35;;;7.50;99.90;;;;;;6212789;28;20057;-85
2024/03/12 06:04:02;;;;;;;40.35;19.30;;;7.50;99.90;;;;;;6221012;28;20054;-86
2024/03/12 06:07:04;;;;;;;38.15;18.45;;;7.50;99.90;;;;;;6244441;28;20072;-85
2024/03/12 06:10:07;;;;;;;36.75;18.00;;;7.50;99.90;;;;;;6245172;28;20081;-85
2024/03/12 06:13:09;;;;;;;38.40;17.33;;;7.50;99.90;;;;;;6219334;28;20049;-82
2024/03/12 06:16:11;;;;;;;36.58;16.90;;;7.50;99.90;;;;;;6245772;28;20054;-87
2024/03/12 06:19:13;;;;;;;37.83;17.45;;;7.40;99.90;;;;;;6221236;28;20058;-87
2024/03/12 06:22:16;;;;;;;33.42;15.45;;;7.40;99.90;;;;;;6244861;28;20342;-87
2024/03/12 06:25:18;;;;;;;33.55;15.93;;;7.40;99.90;;;;;;6220866;28;20413;-86
2024/03/12 06:28:21;;;;;;;34.88;17.05;;;7.40;99.90;;;;;;6228505;28;20061;-87
2024/03/12 06:31:23;;;;;;;31.42;15.43;;;7.40;99.90;;;;;;6203618;28;20137;-88
2024/03/12 06:34:28;;;;;;;30.00;15.57;;;7.40;99.90;;;;;;6245220;28;20046;-87
2024/03/12 06:37:30;;;;;;;27.65;13.13;;;7.40;99.90;;;;;;6221296;28;20058;-87
2024/03/12 06:40:32;;;;;;;27.35;12.43;;;7.40;99.90;;;;;;6243413;28;20424;-87
2024/03/12 06:43:39;;;;;;;26.90;12.20;;;7.40;99.90;;;;;;6223178;28;20065;-87
2024/03/12 06:46:41;;;;;;;27.73;12.52;;;7.40;99.90;;;;;;6245178;28;20398;-87
2024/03/12 06:49:44;;;;;;;24.73;12.13;;;7.40;99.90;;;;;;6222874;28;20054;-87
2024/03/12 06:52:48;;;;;;;22.55;10.98;;;7.40;99.90;;;;;;6228439;28;20061;-88
2024/03/12 06:55:50;;;;;;;22.23;11.00;;;7.40;99.90;;;;;;6220502;28;20050;-87
2024/03/12 06:58:52;;;;;;;22.67;11.00;;;7.40;99.90;;;;;;6202270;28;20468;-87
2024/03/12 07:01:55;;;;;;;20.27;11.10;;;7.50;99.90;;;;;;6204341;28;20437;-87
2024/03/12 07:04:57;;;;;;;21.38;10.13;;;7.50;99.90;;;;;;6244651;28;20847;-88
2024/03/12 07:07:58;;;;;;;17.98;9.40;;;7.50;99.90;;;;;;6220850;28;20058;-87
2024/03/12 07:11:01;;;;;;;17.83;8.57;;;7.50;99.90;;;;;;6226746;28;20046;-88
2024/03/12 07:14:12;;;;;;;20.38;8.60;;;7.50;99.90;;;;;;6203857;28;20377;-86
2024/03/12 07:17:14;;;;;;;17.13;8.30;;;7.50;99.90;;;;;;6219706;28;20569;-87
2024/03/12 07:20:20;;;;;;;16.83;8.05;;;7.50;99.90;;;;;;6243597;28;20084;-87
2024/03/12 07:23:22;;;;;;;17.52;8.02;;;7.60;99.90;;;;;;6219688;28;20505;-87
2024/03/12 07:26:23;;;;;;;16.60;8.35;;;7.60;99.90;;;;;;6243495;28;20049;-85
2024/03/12 07:29:25;;;;;;;15.88;8.13;;;7.60;99.90;;;;;;6220307;28;20058;-87
2024/03/12 07:32:26;;;;;;;17.98;7.45;;;7.70;99.90;;;;;;6230326;28;20050;-87
2024/03/12 07:35:28;;;;;;;16.85;8.32;;;7.70;99.90;;;;;;6207393;28;20060;-86
2024/03/12 07:38:30;;;;;;;17.80;8.13;;;7.70;99.90;;;;;;6231468;28;20060;-87
2024/03/12 07:41:32;;;;;;;17.58;8.40;;;7.70;99.90;;;;;;6227599;28;20168;-86
2024/03/12 07:44:35;;;;;;;18.20;8.32;;;7.80;99.90;;;;;;6217270;28;20516;-83
2024/03/12 07:47:39;;;;;;;17.85;8.60;;;7.80;99.90;;;;;;6248028;28;20045;-84
2024/03/12 07:50:41;;;;;;;15.23;7.63;;;7.90;99.90;;;;;;6232653;28;20087;-85
2024/03/12 07:53:44;;;;;;;16.35;8.43;;;7.90;99.90;;;;;;6229164;28;20046;-84
2024/03/12 07:56:49;;;;;;;15.63;7.72;;;8.00;99.90;;;;;;6205508;28;20064;-84
2024/03/12 07:59:52;;;;;;;17.10;8.15;;;8.00;99.90;;;;;;6218976;28;20045;-85
2024/03/12 08:02:53;;;;;;;15.82;7.60;;;8.10;99.90;;;;;;6222782;28;20065;-84
2024/03/12 08:05:55;;;;;;;15.98;6.97;;;8.10;99.90;;;;;;6246121;28;20072;-83
2024/03/12 08:08:57;;;;;;;14.68;6.70;;;8.10;99.90;;;;;;6204521;28;20050;-84
2024/03/12 08:11:58;;;;;;;12.93;5.95;;;8.20;99.90;;;;;;6246971;28;20049;-82
2024/03/12 08:15:01;;;;;;;10.68;5.30;;;8.20;99.90;;;;;;6204541;28;20666;-85
2024/03/12 08:18:04;;;;;;;10.68;5.13;;;8.30;99.90;;;;;;6242954;28;20053;-87
2024/03/12 08:21:20;;;;;;;9.55;4.93;;;8.30;99.90;;;;;;6233984;28;20443;-85
2024/03/12 08:24:23;;;;;;;8.13;4.53;;;8.30;99.90;;;;;;6203883;28;20528;-84
2024/03/12 08:27:25;;;;;;;9.43;4.95;;;8.40;99.90;;;;;;6228417;28;20068;-84
2024/03/12 08:30:26;;;;;;;9.02;4.55;;;8.40;99.90;;;;;;6203241;28;20421;-83
2024/03/12 08:33:30;;;;;;;9.10;4.35;;;8.50;99.90;;;;;;6228468;28;20140;-83
2024/03/12 08:36:35;;;;;;;7.18;3.88;;;8.60;99.90;;;;;;6207403;28;20046;-84
2024/03/12 08:39:37;;;;;;;7.00;3.53;;;;;;;;;;6230483;28;20194;-83
2024/03/12 08:42:39;;;;;;;7.43;3.60;;;8.60;99.90;;;;;;6204391;28;20062;-82
2024/03/12 08:45:54;;;;;;;6.50;3.00;;;8.80;99.90;;;;;;6213806;28;20750;-84
2024/03/12 08:48:56;;;;;;;7.35;3.30;;;8.80;99.90;;;;;;6229116;28;20469;-85
2024/03/12 08:51:57;;;;;;;7.45;3.60;;;8.90;99.90;;;;;;6223413;28;20065;-86
2024/03/12 08:54:59;;;;;;;7.68;3.72;;;8.90;99.90;;;;;;6229068;28;20057;-90
2024/03/12 08:58:07;;;;;;;5.90;3.45;;;8.90;99.90;;;;;;6203877;28;20497;-83
2024/03/12 09:01:13;;;;;;;5.45;2.88;;;8.80;99.90;;;;;;6233128;28;20489;-90
2024/03/12 09:04:14;;;;;;;6.22;3.30;;;8.90;99.90;;;;;;6205267;28;20135;-89
2024/03/12 09:07:17;;;;;;;5.65;2.70;;;9.00;99.90;;;;;;6247372;28;20059;-90
2024/03/12 09:10:18;;;;;;;6.30;2.47;;;9.00;99.90;;;;;;6224008;28;20528;-90
2024/03/12 09:13:20;;;;;;;4.07;1.98;;;9.00;99.90;;;;;;6222477;28;20581;-88
2024/03/12 09:16:22;;;;;;;5.18;2.13;;;9.10;99.90;;;;;;6204257;28;20078;-92
2024/03/12 09:19:24;;;;;;;5.07;1.83;;;9.10;99.90;;;;;;6249817;28;20057;-89
2024/03/12 09:22:28;;;;;;;3.67;1.60;;;9.10;99.90;;;;;;6225674;28;20061;-93
2024/03/12 09:25:30;;;;;;;4.43;1.70;;;9.20;99.90;;;;;;6235178;28;20054;-86
2024/03/12 09:28:32;;;;;;;3.10;1.50;;;9.20;99.90;;;;;;6218843;28;20056;-90
2024/03/12 09:31:36;;;;;;;2.72;1.23;;;9.20;99.90;;;;;;6228823;28;20060;-89
2024/03/12 09:34:40;;;;;;;4.05;1.63;;;9.30;99.90;;;;;;6206925;28;20093;-89
2024/03/12 09:37:42;;;;;;;4.00;2.05;;;9.60;99.90;;;;;;6244182;28;20061;-83
2024/03/12 09:40:45;;;;;;;5.20;2.92;;;9.40;99.90;;;;;;6229075;28;20054;-84
2024/03/12 09:43:47;;;;;;;3.45;1.80;;;9.70;99.90;;;;;;6206588;28;20080;-90
2024/03/12 09:46:49;;;;;;;2.45;1.20;;;9.50;99.90;;;;;;6206797;28;20069;-92
2024/03/12 09:49:50;;;;;;;3.90;1.95;;;9.60;99.90;;;;;;6205929;28;20066;-90
2024/03/12 09:52:52;;;;;;;3.33;1.70;;;9.60;99.90;;;;;;6204926;28;20064;-91
2024/03/12 09:55:54;;;;;;;3.22;1.80;;;9.70;99.90;;;;;;6245089;28;20766;-89
2024/03/12 09:58:57;;;;;;;2.88;1.00;;;9.70;99.90;;;;;;6203442;28;20057;-90
2024/03/12 10:02:01;;;;;;;1.80;0.80;;;9.80;99.90;;;;;;6228198;28;20060;-87
2024/03/12 10:05:07;;;;;;;3.17;0.90;;;9.80;99.90;;;;;;6221491;28;20057;-90
2024/03/12 10:08:12;;;;;;;1.80;0.60;;;10.00;99.90;;;;;;6226763;28;20060;-89
2024/03/12 10:11:14;;;;;;;2.33;0.60;;;10.00;99.90;;;;;;6231236;28;20061;-89
2024/03/12 10:14:17;;;;;;;4.03;0.70;;;10.10;99.90;;;;;;6222422;28;20095;-93
2024/03/12 10:17:20;;;;;;;1.38;0.60;;;10.10;99.90;;;;;;6249874;28;20064;-88
2024/03/12 10:20:22;;;;;;;1.65;0.70;;;10.10;99.90;;;;;;6218145;28;20034;-92
2024/03/12 10:23:25;;;;;;;1.42;0.70;;;10.20;99.90;;;;;;6258421;28;20053;-93
2024/03/12 10:26:29;;;;;;;1.95;0.80;;;10.30;99.90;;;;;;6234531;28;20098;-92
2024/03/12 10:29:31;;;;;;;2.80;1.00;;;10.30;99.90;;;;;;6243889;28;20037;-91
2024/03/12 10:32:34;;;;;;;2.00;0.80;;;10.40;99.90;;;;;;6241546;28;20064;-91
2024/03/12 10:35:36;;;;;;;2.22;0.90;;;10.50;99.90;;;;;;6248063;28;20417;-93
2024/03/12 10:38:39;;;;;;;2.35;0.75;;;10.60;99.90;;;;;;6213568;28;20061;-94
2024/03/12 10:41:43;;;;;;;2.42;1.00;;;10.60;99.90;;;;;;6245898;28;20060;-87
2024/03/12 10:44:45;;;;;;;1.90;0.90;;;10.70;99.90;;;;;;6202210;28;20149;-88
2024/03/12 10:47:48;;;;;;;2.00;0.82;;;10.70;99.90;;;;;;6227266;28;20057;-88
2024/03/12 10:50:51;;;;;;;3.10;1.02;;;10.80;99.90;;;;;;6221523;28;20053;-90
2024/03/12 10:53:53;;;;;;;2.15;0.93;;;10.80;99.90;;;;;;6228763;28;20421;-89
2024/03/12 10:56:56;;;;;;;4.00;1.13;;;11.00;99.90;;;;;;6203484;28;20061;-88
2024/03/12 11:00:03;;;;;;;2.80;0.90;;;11.00;99.90;;;;;;6208712;28;20049;-87
2024/03/12 11:03:05;;;;;;;3.45;1.00;;;11.00;99.90;;;;;;6203482;28;20060;-88
2024/03/12 11:06:07;;;;;;;2.10;0.82;;;11.00;99.90;;;;;;6246619;28;20083;-87
2024/03/12 11:09:11;;;;;;;2.40;0.88;;;11.50;99.90;;;;;;6207073;28;20061;-87
2024/03/12 11:12:14;;;;;;;2.50;0.90;;;11.00;99.90;;;;;;6227824;28;20053;-91
2024/03/12 11:15:15;;;;;;;2.00;0.80;;;11.10;99.90;;;;;;6210163;28;20050;-89
2024/03/12 11:18:17;;;;;;;2.58;1.08;;;11.10;99.90;;;;;;6249127;28;20056;-84
2024/03/12 11:21:19;;;;;;;2.80;0.90;;;11.20;99.90;;;;;;6248925;28;20055;-92
2024/03/12 11:24:21;;;;;;;3.17;1.08;;;11.30;99.90;;;;;;6238069;28;20053;-91
2024/03/12 11:27:25;;;;;;;2.08;0.88;;;11.30;99.90;;;;;;6252234;28;20049;-93
2024/03/12 11:30:26;;;;;;;1.95;0.80;;;11.40;99.90;;;;;;6197974;28;20054;-87
2024/03/12 11:33:28;;;;;;;4.47;1.00;;;11.40;99.90;;;;;;6246455;28;20767;-87
2024/03/12 11:36:31;;;;;;;2.97;0.90;;;11.50;99.90;;;;;;6231017;28;20053;-87
2024/03/12 11:39:33;;;;;;;2.15;0.70;;;11.60;99.90;;;;;;6232260;28;20053;-89
2024/03/12 11:42:35;;;;;;;1.98;0.80;;;11.60;99.90;;;;;;6206564;28;20516;-86
2024/03/12 11:45:37;;;;;;;2.42;0.80;;;11.60;99.90;;;;;;6240562;28;20069;-87
2024/03/12 11:48:40;;;;;;;2.08;0.90;;;11.70;99.90;;;;;;6258850;28;20060;-92
2024/03/12 11:51:42;;;;;;;1.73;0.80;;;11.70;99.90;;;;;;6227643;28;20052;-91
2024/03/12 11:54:44;;;;;;;2.88;0.90;;;11.80;99.90;;;;;;6225727;28;20464;-91
2024/03/12 11:57:46;;;;;;;1.80;0.80;;;11.80;99.90;;;;;;6224776;28;20612;-91
2024/03/12 12:00:50;;;;;;;3.15;0.98;;;11.90;99.90;;;;;;6222838;28;20104;-88
2024/03/12 12:03:52;;;;;;;2.72;0.80;;;11.90;99.90;;;;;;6222250;28;20049;-88
2024/03/12 12:06:55;;;;;;;2.55;0.90;;;11.90;99.90;;;;;;6224449;28;20064;-87
2024/03/12 12:09:57;;;;;;;2.85;1.00;;;12.00;99.90;;;;;;6226034;28;20521;-87
2024/03/12 12:12:58;;;;;;;3.45;1.10;;;11.90;99.90;;;;;;6222544;28;20520;-86
2024/03/12 12:16:01;;;;;;;7.65;1.10;;;12.00;99.90;;;;;;6204375;28;20141;-91
2024/03/12 12:19:04;;;;;;;3.22;1.10;;;11.90;99.90;;;;;;6240891;28;20474;-86
2024/03/12 12:22:07;;;;;;;2.47;1.00;;;12.00;99.90;;;;;;6245942;28;20061;-88
2024/03/12 12:25:11;;;;;;;3.05;1.20;;;12.10;99.90;;;;;;6213066;28;20061;-86
2024/03/12 12:28:19;;;;;;;3.65;1.10;;;12.20;99.90;;;;;;6198785;28;20068;-83
2024/03/12 12:31:21;;;;;;;2.72;1.00;;;12.10;99.90;;;;;;6220143;28;20053;-87
2024/03/12 12:34:22;;;;;;;2.47;1.10;;;12.20;99.90;;;;;;6221980;28;20061;-85
2024/03/12 12:37:24;;;;;;;3.25;1.10;;;12.30;99.90;;;;;;6198429;28;20062;-86
2024/03/12 12:40:26;;;;;;;3.55;1.10;;;12.20;99.90;;;;;;6251437;28;20057;-86
2024/03/12 12:43:28;;;;;;;3.58;1.10;;;12.20;99.90;;;;;;6202116;28;20560;-86
2024/03/12 12:46:30;;;;;;;2.10;0.90;;;12.20;99.90;;;;;;6244391;28;20132;-86
2024/03/12 12:49:35;;;;;;;4.32;1.30;;;12.20;99.90;;;;;;6197179;28;20054;-83
2024/03/12 12:52:37;;;;;;;2.55;1.10;;;12.30;99.90;;;;;;6228216;28;20119;-84
2024/03/12 12:55:39;;;;;;;2.42;1.30;;;12.30;99.90;;;;;;6221548;28;20057;-84
2024/03/12 12:58:42;;;;;;;4.22;1.38;;;12.30;99.90;;;;;;6201359;28;20578;-84
2024/03/12 13:01:46;;;;;;;3.05;1.20;;;12.30;99.90;;;;;;6228519;28;20049;-84
2024/03/12 13:04:49;;;;;;;3.55;1.33;;;12.30;99.90;;;;;;6196435;28;20050;-85
2024/03/12 13:07:50;;;;;;;3.63;1.35;;;12.40;99.90;;;;;;6245209;28;20057;-84
2024/03/12 13:10:52;;;;;;;2.65;1.30;;;12.50;99.90;;;;;;6203912;28;20344;-84
2024/03/12 13:13:54;;;;;;;4.80;1.30;;;12.60;99.90;;;;;;6216471;28;20061;-84
2024/03/12 13:16:58;;;;;;;3.83;1.30;;;12.70;99.90;;;;;;6242901;28;20406;-85
2024/03/12 13:20:03;;;;;;;4.95;1.50;;;12.80;99.90;;;;;;6230323;28;20053;-85
2024/03/12 13:23:08;;;;;;;2.90;1.25;;;12.90;99.90;;;;;;6206303;28;20184;-85
2024/03/12 13:26:12;;;;;;;3.63;1.30;;;12.80;99.90;;;;;;6247996;28;20417;-86
2024/03/12 13:29:15;;;;;;;3.78;1.40;;;12.80;99.90;;;;;;6198466;28;20050;-84
2024/03/12 13:32:17;;;;;;;4.28;1.70;;;12.80;99.90;;;;;;6224886;28;20066;-85
2024/03/12 13:35:19;;;;;;;5.28;1.85;;;12.80;99.90;;;;;;6204537;28;20069;-85
2024/03/12 13:38:20;;;;;;;4.30;1.55;;;12.90;99.90;;;;;;6245816;28;20080;-86
2024/03/12 13:41:23;;;;;;;4.70;1.70;;;12.90;99.90;;;;;;6203778;28;20050;-85
2024/03/12 13:44:26;;;;;;;5.40;1.80;;;12.90;99.90;;;;;;6195720;28;20437;-85
2024/03/12 13:47:32;;;;;;;5.63;1.70;;;12.90;99.90;;;;;;6203800;28;20053;-83
2024/03/12 13:50:34;;;;;;;4.85;1.70;;;12.90;99.90;;;;;;6221103;28;20536;-87
2024/03/12 13:53:36;;;;;;;7.30;1.83;;;12.90;99.90;;;;;;6230909;28;20060;-93
2024/03/12 13:56:38;;;;;;;10.07;1.90;;;12.90;99.90;;;;;;6215236;28;20511;-86
2024/03/12 13:59:40;;;;;;;6.40;1.85;;;12.90;99.90;;;;;;6371736;22;20067;-90
2024/03/12 14:02:43;;;;;;;6.60;1.98;;;12.90;99.90;;;;;;6279692;28;20060;-92
2024/03/12 14:05:46;;;;;;;9.98;2.20;;;13.00;99.90;;;;;;6258274;28;20083;-92
2024/03/12 14:08:47;;;;;;;10.07;1.90;;;13.00;99.90;;;;;;6281299;28;20053;-94
2024/03/12 14:11:49;;;;;;;10.73;2.10;;;13.10;99.90;;;;;;6256033;28;20444;-89
2024/03/12 14:14:52;;;;;;;11.77;2.03;;;13.10;99.90;;;;;;6283826;28;20052;-95
2024/03/12 14:17:54;;;;;;;9.75;2.58;;;13.10;99.90;;;;;;6286463;28;20103;-89
2024/03/12 14:20:56;;;;;;;9.43;2.10;;;13.10;99.90;;;;;;6274044;28;20052;-91
2024/03/12 14:23:58;;;;;;;11.90;2.75;;;13.10;99.90;;;;;;6256424;28;20053;-91
2024/03/12 14:27:00;;;;;;;13.02;2.70;;;13.00;99.90;;;;;;6275578;28;20049;-92
2024/03/12 14:30:02;;;;;;;16.17;3.15;;;13.00;99.90;;;;;;6242893;28;20050;-90
2024/03/12 14:33:04;;;;;;;12.38;2.55;;;13.10;99.90;;;;;;6274859;28;20098;-86
2024/03/12 14:36:05;;;;;;;14.38;2.58;;;13.10;99.90;;;;;;6256979;28;20061;-91
2024/03/12 14:39:07;;;;;;;16.02;2.67;;;13.10;99.90;;;;;;6282206;28;20112;-91
2024/03/12 14:42:09;;;;;;;15.43;2.97;;;13.10;99.90;;;;;;6266965;28;20050;-90
2024/03/12 14:45:11;;;;;;;15.48;2.92;;;13.10;99.90;;;;;;6264811;28;20052;-89
2024/03/12 14:48:13;;;;;;;11.43;2.90;;;13.10;99.90;;;;;;6258436;28;20076;-87
2024/03/12 14:51:15;;;;;;;14.52;3.25;;;13.20;99.90;;;;;;6274166;28;20056;-87
2024/03/12 14:54:17;;;;;;;19.08;3.38;;;13.20;99.90;;;;;;6256172;28;20058;-88
2024/03/12 14:57:18;;;;;;;13.20;2.60;;;13.30;99.90;;;;;;6277142;28;20519;-91
2024/03/12 15:00:20;;;;;;;16.40;3.05;;;13.30;99.90;;;;;;6245586;28;20058;-88
2024/03/12 15:03:22;;;;;;;16.88;3.08;;;13.30;99.90;;;;;;6253619;28;20056;-87
2024/03/12 15:06:23;;;;;;;15.93;2.85;;;13.30;99.90;;;;;;6252528;28;20405;-90
2024/03/12 15:09:29;;;;;;;17.60;3.10;;;13.30;99.90;;;;;;6257003;28;20065;-88
2024/03/12 15:12:32;;;;;;;14.23;2.95;;;13.40;99.90;;;;;;6252555;28;20530;-89
2024/03/12 15:15:35;;;;;;;10.50;2.55;;;13.50;99.90;;;;;;6240317;28;20065;-91
2024/03/12 15:18:39;;;;;;;13.48;2.35;;;13.50;99.90;;;;;;6256429;28;20049;-91
2024/03/12 15:21:41;;;;;;;16.17;3.20;;;13.70;99.90;;;;;;6252192;28;20065;-90
2024/03/12 15:24:44;;;;;;;14.40;2.90;;;13.70;99.90;;;;;;6255213;28;20057;-92
2024/03/12 15:27:48;;;;;;;14.10;2.70;;;13.60;99.90;;;;;;6251097;28;20132;-90
2024/03/12 15:30:50;;;;;;;14.32;3.10;;;13.60;99.90;;;;;;6232792;28;20053;-90
2024/03/12 15:33:52;;;;;;;15.73;3.20;;;13.60;99.90;;;;;;6245843;28;20436;-92
2024/03/12 15:36:57;;;;;;;14.50;2.85;;;13.60;99.90;;;;;;6253675;28;20057;-93
2024/03/12 15:40:11;;;;;;;13.68;2.60;;;13.70;99.90;;;;;;6226415;28;20068;-92
2024/03/12 15:43:13;;;;;;;14.75;2.85;;;13.70;99.90;;;;;;6240540;28;20501;-91
2024/03/12 15:46:15;;;;;;;14.48;2.92;;;13.70;99.90;;;;;;6247905;28;20159;-93
2024/03/12 15:49:17;;;;;;;11.35;2.75;;;13.80;99.90;;;;;;6231568;28;20062;-89
2024/03/12 15:52:19;;;;;;;18.65;3.30;;;13.80;99.90;;;;;;6252448;28;20053;-91